Fairgrounds, Louisiana
Current Conditions -  °F | °C
As of 11:56 AM on Friday 28 Nov 2014 (Local Time) from KSHV Reporting Station
Clear Clear  
Wind Chill: 59°   Ceiling: Unl
Heat Index: 59°   Visibility: 10mi
Dew Point: 36°   Wind: 10mph
Humidity: 42%   Direction: 190°S
Pressure: 30.26"   Gusts: NA
Location:  32.4646°N, 93.8137°W
Report Text: KSHV 281756Z 19009KT 10SM CLR 15/02 A3026 RMK AO2 PRESFR SLP248 T01500022 10150 20011 58031
Loading
Personal Weather Stations






























Interactive Weather Map New forecast layout! Learn more

10-Day Weather Forecast

Advertisements
Track Severe Weather on mobile